Thunder radar more information blitzortung!


Radar de pluja more information rain snow radar


Visita la nostra xarxa de llocs de meteo:

Template documentation
and downloads

And another site



No particular awareness of the weather is required.    There are no Weather-warnings

Pagina Historial Weather Underground text

Diari Resum Octubre 14, 2017 Unitats:  Mètric    Imperial   Tant
« Previous Dia
SegĂźent Dia »
Diari Setmana Mensual Anual Personalitzada
  Maxima: Minima: Media:
Temperatura: 24.3 °C 15.5 °C 19.1 °C
Punt de rosada: 17.3 °C 14.0 °C 15.2 °C
Humitat: 93 % 57 % 79 %
Wind Speed: 16.7 km/h 0.0 km/h 4.3 km/h
RĂ fegues de vent: 16.7 km/h - -
Vent:- - ESE
Pression baro: 1028.0 hPa 1026.0 hPa -
Precipitacions: 0.0 mm    
Historical Graphs
 
 
Dades de taula per Octubre 14, 2017
Temps Temperatura Punt de rosada Pression baro Vent Wind Speed RĂ fegues de vent Humitat Rainfall Rate (Hourly)
00:04 18.0 °C 14.9 °C 1026.0 hPa SW 3.7 km/h 3.7 km/h 82 % 0.0 mm
00:09 18.0 °C 14.9 °C 1026.0 hPa SW 3.2 km/h   82 % 0.0 mm
00:14 17.9 °C 14.9 °C 1026.0 hPa SW 3.7 km/h 3.7 km/h 83 % 0.0 mm
00:19 17.8 °C 14.9 °C 1026.0 hPa SW 2.3 km/h 2.6 km/h 83 % 0.0 mm
00:24 17.8 °C 15.1 °C 1026.0 hPa SW 1.9 km/h   84 % 0.0 mm
00:29 17.8 °C 15.1 °C 1026.0 hPa SW 1.9 km/h   84 % 0.0 mm
00:34 17.7 °C 14.9 °C 1026.0 hPa SW 1.9 km/h   84 % 0.0 mm
00:39 17.6 °C 14.9 °C 1026.0 hPa Calm     84 % 0.0 mm
00:44 17.6 °C 15.1 °C 1026.0 hPa WSW 1.9 km/h   85 % 0.0 mm
00:49 17.6 °C 15.1 °C 1026.0 hPa Calm     85 % 0.0 mm
00:54 17.6 °C 15.1 °C 1026.0 hPa Calm     85 % 0.0 mm
00:59 17.5 °C 14.9 °C 1026.0 hPa Calm     85 % 0.0 mm
01:04 17.3 °C 14.8 °C 1026.0 hPa Calm     85 % 0.0 mm
01:05 17.3 °C 14.8 °C 1026.0 hPa Calm     85 % 0.0 mm
01:10 17.3 °C 14.9 °C 1026.0 hPa NNW 1.9 km/h 2.3 km/h 86 % 0.0 mm
01:15 17.3 °C 14.9 °C 1026.0 hPa NNE 1.9 km/h 1.9 km/h 86 % 0.0 mm
01:20 17.3 °C 14.9 °C 1026.0 hPa Calm     86 % 0.0 mm
01:25 17.3 °C 14.9 °C 1026.0 hPa Calm     86 % 0.0 mm
01:30 17.3 °C 14.9 °C 1026.0 hPa NNE 1.9 km/h 1.9 km/h 86 % 0.0 mm
01:35 17.2 °C 14.8 °C 1026.0 hPa Calm     86 % 0.0 mm
01:40 17.1 °C 14.7 °C 1026.0 hPa Calm     86 % 0.0 mm
01:45 17.1 °C 14.7 °C 1026.0 hPa Calm     86 % 0.0 mm
01:50 17.0 °C 14.7 °C 1026.0 hPa Calm     86 % 0.0 mm
01:55 16.9 °C 14.7 °C 1026.0 hPa Calm     87 % 0.0 mm
02:00 16.8 °C 14.6 °C 1026.0 hPa Calm     87 % 0.0 mm
02:05 16.8 °C 14.6 °C 1026.0 hPa WNW 3.7 km/h 3.7 km/h 87 % 0.0 mm
02:10 16.8 °C 14.6 °C 1026.0 hPa WNW 1.9 km/h 1.9 km/h 87 % 0.0 mm
02:15 16.8 °C 14.6 °C 1026.0 hPa WNW 1.9 km/h 1.9 km/h 87 % 0.0 mm
02:20 16.8 °C 14.8 °C 1026.0 hPa Calm     88 % 0.0 mm
02:25 16.8 °C 14.8 °C 1026.0 hPa Calm     88 % 0.0 mm
02:30 16.7 °C 14.7 °C 1026.0 hPa Calm     88 % 0.0 mm
02:35 16.7 °C 14.7 °C 1026.0 hPa Calm     88 % 0.0 mm
02:40 16.7 °C 14.7 °C 1026.0 hPa Calm     88 % 0.0 mm
02:45 16.6 °C 14.6 °C 1027.0 hPa Calm     88 % 0.0 mm
02:50 16.6 °C 14.6 °C 1027.0 hPa Calm     88 % 0.0 mm
02:55 16.6 °C 14.6 °C 1027.0 hPa Calm     88 % 0.0 mm
03:00 16.6 °C 14.8 °C 1026.0 hPa Calm     89 % 0.0 mm
03:05 16.6 °C 14.8 °C 1026.0 hPa Calm     89 % 0.0 mm
03:10 16.5 °C 14.7 °C 1026.0 hPa Calm     89 % 0.0 mm
03:15 16.6 °C 14.8 °C 1026.0 hPa WNW 3.7 km/h   89 % 0.0 mm
03:20 16.7 °C 14.9 °C 1026.0 hPa Calm     89 % 0.0 mm
03:25 16.7 °C 15.1 °C 1026.0 hPa Calm     90 % 0.0 mm
03:30 16.7 °C 15.1 °C 1026.0 hPa Calm     90 % 0.0 mm
03:35 16.7 °C 15.1 °C 1026.0 hPa Calm     90 % 0.0 mm
03:40 16.7 °C 15.1 °C 1026.0 hPa Calm     90 % 0.0 mm
03:45 16.7 °C 15.1 °C 1026.0 hPa Calm     90 % 0.0 mm
03:50 16.6 °C 14.9 °C 1026.0 hPa Calm     90 % 0.0 mm
03:55 16.6 °C 14.9 °C 1026.0 hPa Calm     90 % 0.0 mm
04:00 16.7 °C 15.1 °C 1026.0 hPa Calm     90 % 0.0 mm
04:05 16.6 °C 14.9 °C 1026.0 hPa Calm     90 % 0.0 mm
04:10 16.6 °C 14.9 °C 1026.0 hPa NNE 1.9 km/h 1.9 km/h 90 % 0.0 mm
04:15 16.3 °C 14.7 °C 1026.0 hPa NNE 2.6 km/h 2.6 km/h 90 % 0.0 mm
04:20 16.3 °C 14.7 °C 1026.0 hPa NNE 2.3 km/h 2.3 km/h 90 % 0.0 mm
04:25 16.4 °C 14.8 °C 1026.0 hPa Calm     90 % 0.0 mm
04:30 16.0 °C 14.3 °C 1026.0 hPa West 3.7 km/h 3.7 km/h 90 % 0.0 mm
04:35 15.8 °C 14.0 °C 1026.0 hPa SW 3.7 km/h 3.7 km/h 89 % 0.0 mm
04:40 15.9 °C 14.3 °C 1026.0 hPa SSE 1.9 km/h 1.9 km/h 90 % 0.0 mm
04:45 16.0 °C 14.3 °C 1026.0 hPa Calm     90 % 0.0 mm
04:50 15.8 °C 14.2 °C 1026.0 hPa Calm     90 % 0.0 mm
04:55 15.9 °C 14.3 °C 1026.0 hPa Calm     90 % 0.0 mm
05:00 15.9 °C 14.3 °C 1026.0 hPa Calm     90 % 0.0 mm
05:05 15.8 °C 14.2 °C 1026.0 hPa Calm     90 % 0.0 mm
05:10 15.8 °C 14.2 °C 1026.0 hPa Calm     90 % 0.0 mm
05:15 15.7 °C 14.1 °C 1026.0 hPa Calm     90 % 0.0 mm
05:20 15.7 °C 14.2 °C 1026.0 hPa Calm     91 % 0.0 mm
05:22 15.7 °C 14.2 °C 1026.0 hPa Calm     91 % 0.0 mm
05:27 15.6 °C 14.1 °C 1026.0 hPa Calm     91 % 0.0 mm
05:32 15.6 °C 14.1 °C 1026.0 hPa Calm     91 % 0.0 mm
05:37 15.7 °C 14.2 °C 1026.0 hPa Calm     91 % 0.0 mm
05:42 15.7 °C 14.2 °C 1026.0 hPa Calm     91 % 0.0 mm
05:47 15.6 °C 14.1 °C 1026.0 hPa Calm     91 % 0.0 mm
05:52 15.6 °C 14.1 °C 1026.0 hPa South 1.9 km/h 1.9 km/h 91 % 0.0 mm
05:57 15.6 °C 14.1 °C 1026.0 hPa Calm     91 % 0.0 mm
06:02 15.6 °C 14.1 °C 1026.0 hPa Calm     91 % 0.0 mm
06:07 15.6 °C 14.1 °C 1026.0 hPa Calm     91 % 0.0 mm
06:13 15.6 °C 14.3 °C 1026.0 hPa Calm     92 % 0.0 mm
06:18 15.6 °C 14.3 °C 1026.0 hPa Calm     92 % 0.0 mm
06:23 15.7 °C 14.4 °C 1026.0 hPa Calm     92 % 0.0 mm
06:28 15.8 °C 14.5 °C 1026.0 hPa Calm     92 % 0.0 mm
06:33 15.8 °C 14.5 °C 1026.0 hPa Calm     92 % 0.0 mm
06:38 15.8 °C 14.5 °C 1026.0 hPa Calm     92 % 0.0 mm
06:43 15.9 °C 14.6 °C 1026.0 hPa Calm     92 % 0.0 mm
06:48 15.9 °C 14.6 °C 1026.0 hPa Calm     92 % 0.0 mm
06:53 16.0 °C 14.9 °C 1026.0 hPa Calm     93 % 0.0 mm
06:58 16.0 °C 14.9 °C 1027.0 hPa Calm     93 % 0.0 mm
07:03 16.0 °C 14.9 °C 1027.0 hPa ENE 2.3 km/h   93 % 0.0 mm
07:08 16.0 °C 14.7 °C 1027.0 hPa NE 3.7 km/h 3.7 km/h 92 % 0.0 mm
07:13 16.0 °C 14.7 °C 1026.0 hPa Calm     92 % 0.0 mm
07:18 16.0 °C 14.7 °C 1026.0 hPa NE 2.3 km/h   92 % 0.0 mm
07:23 15.9 °C 14.6 °C 1026.0 hPa NE 1.9 km/h   92 % 0.0 mm
07:28 15.9 °C 14.6 °C 1026.0 hPa Calm     92 % 0.0 mm
07:33 15.8 °C 14.5 °C 1026.0 hPa Calm     92 % 0.0 mm
07:38 15.7 °C 14.4 °C 1026.0 hPa SSE 1.9 km/h   92 % 0.0 mm
07:43 15.6 °C 14.3 °C 1027.0 hPa Calm     92 % 0.0 mm
07:48 15.6 °C 14.3 °C 1027.0 hPa Calm     92 % 0.0 mm
07:53 15.6 °C 14.3 °C 1027.0 hPa Calm     92 % 0.0 mm
07:58 15.5 °C 14.2 °C 1026.0 hPa Calm     92 % 0.0 mm
08:03 15.5 °C 14.2 °C 1026.0 hPa Calm     92 % 0.0 mm
08:08 15.5 °C 14.2 °C 1026.0 hPa Calm     92 % 0.0 mm
08:13 15.6 °C 14.3 °C 1027.0 hPa Calm     92 % 0.0 mm
08:18 15.6 °C 14.3 °C 1027.0 hPa Calm     92 % 0.0 mm
08:23 15.6 °C 14.3 °C 1027.0 hPa Calm     92 % 0.0 mm
08:28 15.6 °C 14.3 °C 1027.0 hPa Calm     92 % 0.0 mm
08:33 15.7 °C 14.4 °C 1027.0 hPa Calm     92 % 0.0 mm
08:38 15.9 °C 14.6 °C 1027.0 hPa NNE 5.8 km/h 5.8 km/h 92 % 0.0 mm
08:43 16.0 °C 14.7 °C 1027.0 hPa NNW 1.9 km/h 2.3 km/h 92 % 0.0 mm
08:48 16.0 °C 14.7 °C 1027.0 hPa Calm     92 % 0.0 mm
08:53 16.0 °C 14.7 °C 1027.0 hPa Calm     92 % 0.0 mm
08:58 16.0 °C 14.6 °C 1027.0 hPa WSW 1.9 km/h 1.9 km/h 91 % 0.0 mm
09:03 16.0 °C 14.7 °C 1027.0 hPa Calm     92 % 0.0 mm
09:08 16.1 °C 14.8 °C 1027.0 hPa NNE 5.6 km/h 5.6 km/h 92 % 0.0 mm
09:13 16.2 °C 14.9 °C 1027.0 hPa ENE 5.6 km/h 5.6 km/h 92 % 0.0 mm
09:18 16.3 °C 14.8 °C 1027.0 hPa ENE 5.6 km/h 5.6 km/h 91 % 0.0 mm
09:23 16.4 °C 14.9 °C 1027.0 hPa Calm     91 % 0.0 mm
09:28 16.4 °C 14.9 °C 1028.0 hPa SE 3.7 km/h 3.7 km/h 91 % 0.0 mm
09:33 16.6 °C 15.1 °C 1028.0 hPa ENE 3.7 km/h 3.7 km/h 91 % 0.0 mm
09:38 16.6 °C 15.1 °C 1028.0 hPa ENE 3.7 km/h 3.7 km/h 91 % 0.0 mm
09:43 16.7 °C 15.1 °C 1027.0 hPa East 3.2 km/h   90 % 0.0 mm
09:48 16.8 °C 15.2 °C 1027.0 hPa East 1.9 km/h 1.9 km/h 90 % 0.0 mm
09:53 17.0 °C 15.3 °C 1027.0 hPa SW 3.7 km/h 3.7 km/h 90 % 0.0 mm
09:58 17.1 °C 15.4 °C 1028.0 hPa ENE 3.7 km/h 3.7 km/h 90 % 0.0 mm
10:03 17.3 °C 15.4 °C 1028.0 hPa Calm     89 % 0.0 mm
10:18 17.8 °C 15.8 °C 1028.0 hPa ENE 3.7 km/h 3.7 km/h 88 % 0.0 mm
10:23 17.9 °C 15.9 °C 1028.0 hPa ENE 5.6 km/h 5.6 km/h 88 % 0.0 mm
10:28 18.1 °C 15.9 °C 1028.0 hPa ESE 5.6 km/h 5.6 km/h 87 % 0.0 mm
10:33 18.2 °C 15.8 °C 1028.0 hPa East 5.6 km/h 5.6 km/h 86 % 0.0 mm
10:38 18.3 °C 15.9 °C 1028.0 hPa NE 7.4 km/h 7.4 km/h 86 % 0.0 mm
10:48 18.5 °C 15.9 °C 1027.0 hPa NNE 7.4 km/h 7.4 km/h 85 % 0.0 mm
10:53 18.7 °C 15.9 °C 1027.0 hPa NNE 5.6 km/h 5.6 km/h 84 % 0.0 mm
10:58 18.9 °C 16.1 °C 1028.0 hPa ENE 5.6 km/h 5.6 km/h 84 % 0.0 mm
11:03 19.0 °C 16.1 °C 1028.0 hPa East 5.6 km/h 5.6 km/h 83 % 0.0 mm
11:08 19.1 °C 16.2 °C 1028.0 hPa WNW 3.7 km/h 3.7 km/h 83 % 0.0 mm
11:13 19.3 °C 16.2 °C 1028.0 hPa NE 5.6 km/h 5.6 km/h 82 % 0.0 mm
11:18 19.5 °C 16.3 °C 1028.0 hPa NNE 5.8 km/h 5.8 km/h 82 % 0.0 mm
11:23 19.6 °C 16.2 °C 1028.0 hPa NNE 5.6 km/h 5.6 km/h 81 % 0.0 mm
11:28 19.9 °C 16.6 °C 1028.0 hPa ENE 2.6 km/h 2.6 km/h 81 % 0.0 mm
11:33 20.1 °C 16.6 °C 1028.0 hPa ENE 3.7 km/h 3.7 km/h 80 % 0.0 mm
11:38 20.2 °C 16.4 °C 1028.0 hPa East 4.7 km/h 4.7 km/h 79 % 0.0 mm
11:43 20.3 °C 16.3 °C 1028.0 hPa East 6.4 km/h 6.4 km/h 78 % 0.0 mm
11:48 20.4 °C 16.4 °C 1028.0 hPa NNE 7.4 km/h 7.4 km/h 78 % 0.0 mm
11:53 20.5 °C 16.6 °C 1028.0 hPa ENE 9.3 km/h 9.3 km/h 78 % 0.0 mm
11:58 20.7 °C 16.5 °C 1028.0 hPa ESE 11.1 km/h 11.1 km/h 77 % 0.0 mm
12:03 20.8 °C 16.6 °C 1028.0 hPa East 5.6 km/h 5.6 km/h 77 % 0.0 mm
12:08 20.9 °C 16.5 °C 1028.0 hPa ENE 5.6 km/h 5.6 km/h 76 % 0.0 mm
12:13 21.1 °C 16.5 °C 1028.0 hPa ENE 7.4 km/h 7.4 km/h 75 % 0.0 mm
12:18 21.3 °C 16.5 °C 1028.0 hPa ESE 3.9 km/h 3.9 km/h 74 % 0.0 mm
12:23 21.6 °C 17.0 °C 1028.0 hPa NNE 5.8 km/h 5.8 km/h 75 % 0.0 mm
12:28 21.8 °C 16.9 °C 1028.0 hPa SE 7.4 km/h 7.4 km/h 74 % 0.0 mm
12:33 21.9 °C 16.8 °C 1028.0 hPa SE 9.3 km/h 9.3 km/h 73 % 0.0 mm
12:38 21.9 °C 16.8 °C 1028.0 hPa ESE 4.2 km/h 4.2 km/h 73 % 0.0 mm
12:43 22.0 °C 16.5 °C 1028.0 hPa ENE 7.4 km/h 7.4 km/h 71 % 0.0 mm
12:48 22.1 °C 16.4 °C 1028.0 hPa ESE 7.4 km/h 7.4 km/h 70 % 0.0 mm
12:53 22.2 °C 16.4 °C 1028.0 hPa ESE 11.1 km/h 11.1 km/h 70 % 0.0 mm
12:58 22.4 °C 16.4 °C 1028.0 hPa NNE 9.3 km/h 9.3 km/h 69 % 0.0 mm
13:03 23.3 °C 17.3 °C 1028.0 hPa ESE 6.1 km/h 6.1 km/h 69 % 0.0 mm
13:08 23.1 °C 16.6 °C 1028.0 hPa ENE 7.4 km/h 7.4 km/h 67 % 0.0 mm
13:13 23.1 °C 16.2 °C 1028.0 hPa SE 11.1 km/h 11.1 km/h 65 % 0.0 mm
13:18 22.8 °C 16.1 °C 1028.0 hPa ESE 9.3 km/h 9.3 km/h 66 % 0.0 mm
13:23 22.8 °C 16.1 °C 1028.0 hPa ESE 3.7 km/h 3.7 km/h 66 % 0.0 mm
13:28 23.0 °C 16.3 °C 1028.0 hPa ENE 8.7 km/h 8.7 km/h 66 % 0.0 mm
13:33 22.9 °C 15.9 °C 1028.0 hPa East 13.0 km/h 13.0 km/h 65 % 0.0 mm
13:38 22.8 °C 16.1 °C 1028.0 hPa East 9.3 km/h 9.3 km/h 66 % 0.0 mm
13:43 23.0 °C 16.3 °C 1028.0 hPa ESE 5.6 km/h 5.6 km/h 66 % 0.0 mm
13:48 22.9 °C 15.9 °C 1028.0 hPa ESE 6.9 km/h 6.9 km/h 65 % 0.0 mm
13:53 22.8 °C 16.1 °C 1028.0 hPa ESE 9.3 km/h 9.3 km/h 66 % 0.0 mm
13:58 22.7 °C 15.8 °C 1028.0 hPa SE 9.3 km/h 9.3 km/h 65 % 0.0 mm
14:03 22.9 °C 16.2 °C 1028.0 hPa ESE 6.4 km/h 6.4 km/h 66 % 0.0 mm
14:08 22.9 °C 16.2 °C 1028.0 hPa ESE 5.6 km/h 5.6 km/h 66 % 0.0 mm
14:13 22.9 °C 15.9 °C 1028.0 hPa ESE 9.3 km/h 9.3 km/h 65 % 0.0 mm
14:18 22.8 °C 15.9 °C 1028.0 hPa ESE 7.4 km/h 7.4 km/h 65 % 0.0 mm
14:23 22.7 °C 15.6 °C 1028.0 hPa ESE 9.3 km/h 9.3 km/h 64 % 0.0 mm
14:28 23.0 °C 16.1 °C 1028.0 hPa ENE 7.9 km/h 7.9 km/h 65 % 0.0 mm
14:33 23.0 °C 16.1 °C 1028.0 hPa ESE 9.3 km/h 9.3 km/h 65 % 0.0 mm
14:38 23.1 °C 15.9 °C 1028.0 hPa ENE 9.3 km/h 9.3 km/h 64 % 0.0 mm
14:43 23.2 °C 16.0 °C 1028.0 hPa SE 16.7 km/h 16.7 km/h 64 % 0.0 mm
14:48 23.0 °C 15.8 °C 1028.0 hPa East 9.3 km/h 9.3 km/h 64 % 0.0 mm
14:53 23.1 °C 15.9 °C 1028.0 hPa East 9.3 km/h 9.3 km/h 64 % 0.0 mm
14:58 23.0 °C 15.8 °C 1027.0 hPa ESE 7.6 km/h 7.6 km/h 64 % 0.0 mm
15:03 22.9 °C 15.7 °C 1027.0 hPa ESE 11.1 km/h 11.1 km/h 64 % 0.0 mm
15:08 23.0 °C 15.8 °C 1027.0 hPa ENE 13.0 km/h 13.0 km/h 64 % 0.0 mm
15:13 23.1 °C 16.2 °C 1027.0 hPa ENE 9.3 km/h 9.3 km/h 65 % 0.0 mm
15:18 23.1 °C 15.9 °C 1027.0 hPa ESE 10.3 km/h 10.3 km/h 64 % 0.0 mm
15:23 23.2 °C 16.3 °C 1027.0 hPa East 14.8 km/h 14.8 km/h 65 % 0.0 mm
15:28 23.2 °C 16.0 °C 1027.0 hPa ESE 9.3 km/h 9.3 km/h 64 % 0.0 mm
15:33 23.4 °C 16.2 °C 1027.0 hPa NNE 9.5 km/h 9.5 km/h 64 % 0.0 mm
15:38 23.7 °C 16.5 °C 1027.0 hPa East 11.1 km/h 11.1 km/h 64 % 0.0 mm
15:43 23.8 °C 16.6 °C 1027.0 hPa NNE 13.0 km/h 13.0 km/h 64 % 0.0 mm
15:44 23.6 °C 16.2 °C 1027.0 hPa NNE 9.3 km/h 9.3 km/h 63 % 0.0 mm
15:49 23.7 °C 16.2 °C 1027.0 hPa ESE 7.4 km/h 7.4 km/h 63 % 0.0 mm
15:54 23.8 °C 15.8 °C 1027.0 hPa East 13.0 km/h 13.0 km/h 61 % 0.0 mm
15:59 24.2 °C 15.9 °C 1027.0 hPa ESE 7.4 km/h 7.4 km/h 60 % 0.0 mm
16:04 24.1 °C 15.6 °C 1027.0 hPa ESE 13.0 km/h 13.0 km/h 59 % 0.0 mm
16:09 24.0 °C 15.2 °C 1027.0 hPa SE 13.0 km/h 13.0 km/h 58 % 0.0 mm
16:14 24.3 °C 15.2 °C 1027.0 hPa SE 7.4 km/h 7.4 km/h 57 % 0.0 mm
16:19 24.3 °C 15.2 °C 1027.0 hPa SSE 9.3 km/h 9.3 km/h 57 % 0.0 mm
16:24 24.2 °C 15.2 °C 1027.0 hPa East 11.1 km/h 11.1 km/h 57 % 0.0 mm
16:29 24.3 °C 15.2 °C 1027.0 hPa East 13.0 km/h 13.0 km/h 57 % 0.0 mm
16:34 24.1 °C 15.6 °C 1027.0 hPa South 5.6 km/h 5.6 km/h 59 % 0.0 mm
16:39 24.0 °C 15.2 °C 1027.0 hPa SE 13.0 km/h 13.0 km/h 58 % 0.0 mm
16:44 24.0 °C 15.5 °C 1027.0 hPa East 11.1 km/h 11.1 km/h 59 % 0.0 mm
16:49 23.7 °C 15.5 °C 1027.0 hPa SE 11.1 km/h 11.1 km/h 60 % 0.0 mm
16:54 23.7 °C 15.5 °C 1027.0 hPa ESE 10.3 km/h 10.3 km/h 60 % 0.0 mm
16:59 23.7 °C 15.5 °C 1026.0 hPa SSW 9.3 km/h 9.3 km/h 60 % 0.0 mm
17:04 23.8 °C 15.6 °C 1026.0 hPa ESE 13.0 km/h 13.0 km/h 60 % 0.0 mm
17:09 23.3 °C 15.1 °C 1026.0 hPa ESE 13.0 km/h 13.0 km/h 60 % 0.0 mm
17:14 23.5 °C 15.6 °C 1026.0 hPa SE 5.6 km/h 5.6 km/h 61 % 0.0 mm
17:19 23.5 °C 15.6 °C 1026.0 hPa SSE 13.0 km/h 13.0 km/h 61 % 0.0 mm
17:24 23.3 °C 15.3 °C 1026.0 hPa SSE 9.3 km/h 9.3 km/h 61 % 0.0 mm
17:29 23.0 °C 15.1 °C 1026.0 hPa SSE 11.1 km/h 11.1 km/h 61 % 0.0 mm
17:34 23.2 °C 15.3 °C 1026.0 hPa ESE 11.9 km/h 11.9 km/h 61 % 0.0 mm
17:39 23.0 °C 15.1 °C 1026.0 hPa East 9.0 km/h 9.0 km/h 61 % 0.0 mm
17:44 23.1 °C 15.2 °C 1026.0 hPa SSE 9.3 km/h 9.3 km/h 61 % 0.0 mm
17:49 23.0 °C 15.1 °C 1026.0 hPa South 9.3 km/h 9.3 km/h 61 % 0.0 mm
17:54 22.8 °C 15.1 °C 1026.0 hPa SE 13.0 km/h 13.0 km/h 62 % 0.0 mm
17:59 22.6 °C 15.2 °C 1026.0 hPa ENE 13.0 km/h 13.0 km/h 63 % 0.0 mm
18:04 22.5 °C 15.1 °C 1026.0 hPa ENE 11.1 km/h 11.1 km/h 63 % 0.0 mm
18:09 22.3 °C 14.9 °C 1026.0 hPa SE 13.0 km/h 13.0 km/h 63 % 0.0 mm
18:14 22.1 °C 14.9 °C 1027.0 hPa ESE 10.3 km/h 10.3 km/h 64 % 0.0 mm
18:19 22.0 °C 15.1 °C 1027.0 hPa ENE 11.1 km/h 11.1 km/h 65 % 0.0 mm
18:24 21.9 °C 15.3 °C 1027.0 hPa ESE 9.3 km/h 9.3 km/h 66 % 0.0 mm
18:29 21.8 °C 15.2 °C 1026.0 hPa East 7.9 km/h 7.9 km/h 66 % 0.0 mm
18:34 21.7 °C 15.1 °C 1026.0 hPa East 14.8 km/h 14.8 km/h 66 % 0.0 mm
18:39 21.6 °C 15.0 °C 1026.0 hPa SE 9.3 km/h 9.3 km/h 66 % 0.0 mm
18:44 21.5 °C 15.1 °C 1026.0 hPa ESE 5.6 km/h 5.6 km/h 67 % 0.0 mm
18:49 21.4 °C 15.0 °C 1026.0 hPa NE 9.3 km/h 9.3 km/h 67 % 0.0 mm
18:54 21.2 °C 14.8 °C 1026.0 hPa ENE 9.3 km/h 9.3 km/h 67 % 0.0 mm
18:59 21.1 °C 14.9 °C 1026.0 hPa ESE 7.4 km/h 7.4 km/h 68 % 0.0 mm
19:04 21.0 °C 14.9 °C 1026.0 hPa ESE 11.1 km/h 11.1 km/h 68 % 0.0 mm
19:09 20.8 °C 14.9 °C 1026.0 hPa ESE 7.4 km/h 7.4 km/h 69 % 0.0 mm
19:14 20.7 °C 15.1 °C 1027.0 hPa ESE 7.4 km/h 7.4 km/h 70 % 0.0 mm
19:19 20.6 °C 14.9 °C 1027.0 hPa SE 11.1 km/h 11.1 km/h 70 % 0.0 mm
19:24 20.5 °C 15.1 °C 1027.0 hPa East 6.9 km/h 6.9 km/h 71 % 0.0 mm
19:29 20.4 °C 14.9 °C 1027.0 hPa ESE 11.1 km/h 11.1 km/h 71 % 0.0 mm
19:34 20.4 °C 14.9 °C 1027.0 hPa ESE 8.7 km/h 8.7 km/h 71 % 0.0 mm
19:39 20.3 °C 15.1 °C 1027.0 hPa ESE 9.3 km/h 9.3 km/h 72 % 0.0 mm
19:44 20.2 °C 15.0 °C 1027.0 hPa East 5.6 km/h 5.6 km/h 72 % 0.0 mm
19:49 20.2 °C 15.2 °C 1027.0 hPa ESE 9.0 km/h 9.0 km/h 73 % 0.0 mm
19:54 20.1 °C 15.1 °C 1027.0 hPa NE 7.4 km/h 7.4 km/h 73 % 0.0 mm
19:59 20.0 °C 15.0 °C 1027.0 hPa ESE 8.7 km/h 8.7 km/h 73 % 0.0 mm
20:04 20.0 °C 15.2 °C 1027.0 hPa ESE 7.4 km/h 7.4 km/h 74 % 0.0 mm
20:09 19.9 °C 15.3 °C 1027.0 hPa ENE 7.4 km/h 7.4 km/h 75 % 0.0 mm
20:14 19.8 °C 15.2 °C 1027.0 hPa ENE 3.9 km/h 3.9 km/h 75 % 0.0 mm
20:19 19.8 °C 15.2 °C 1027.0 hPa ENE 3.7 km/h 3.7 km/h 75 % 0.0 mm
20:24 19.7 °C 15.3 °C 1027.0 hPa ESE 4.7 km/h 4.7 km/h 76 % 0.0 mm
20:29 19.6 °C 15.3 °C 1028.0 hPa East 4.2 km/h 4.2 km/h 76 % 0.0 mm
20:35 19.6 °C 15.3 °C 1028.0 hPa East 5.6 km/h 5.6 km/h 76 % 0.0 mm
20:40 19.5 °C 15.2 °C 1028.0 hPa NNE 5.6 km/h 5.6 km/h 76 % 0.0 mm
20:45 19.5 °C 15.2 °C 1027.0 hPa ENE 5.6 km/h 5.6 km/h 76 % 0.0 mm
20:50 19.4 °C 15.3 °C 1027.0 hPa NNE 3.7 km/h 3.7 km/h 77 % 0.0 mm
20:55 19.3 °C 15.2 °C 1027.0 hPa NNE 3.7 km/h 3.7 km/h 77 % 0.0 mm
21:00 19.3 °C 15.2 °C 1028.0 hPa NE 2.6 km/h 2.6 km/h 77 % 0.0 mm
21:05 19.3 °C 15.2 °C 1028.0 hPa NNE 5.0 km/h 5.0 km/h 77 % 0.0 mm
21:10 19.2 °C 15.1 °C 1028.0 hPa NE 4.7 km/h 4.7 km/h 77 % 0.0 mm
21:15 19.2 °C 15.1 °C 1028.0 hPa NE 3.9 km/h 4.2 km/h 77 % 0.0 mm
21:20 19.1 °C 14.9 °C 1028.0 hPa NNE 3.7 km/h 3.7 km/h 77 % 0.0 mm
21:25 19.0 °C 14.9 °C 1028.0 hPa North 3.7 km/h 3.7 km/h 77 % 0.0 mm
21:30 18.9 °C 15.0 °C 1027.0 hPa NE 3.7 km/h 3.7 km/h 78 % 0.0 mm
21:35 18.8 °C 14.9 °C 1027.0 hPa NNE 2.6 km/h 2.6 km/h 78 % 0.0 mm
21:40 18.7 °C 14.8 °C 1027.0 hPa NNE 2.3 km/h 2.3 km/h 78 % 0.0 mm
21:45 18.6 °C 14.7 °C 1028.0 hPa ENE 1.9 km/h   78 % 0.0 mm
21:50 18.6 °C 14.9 °C 1028.0 hPa NNE 1.9 km/h 1.9 km/h 79 % 0.0 mm
21:55 18.5 °C 14.8 °C 1028.0 hPa Calm   1.9 km/h 79 % 0.0 mm
22:00 18.5 °C 14.8 °C 1028.0 hPa NNE 1.9 km/h 2.3 km/h 79 % 0.0 mm
22:05 18.5 °C 14.8 °C 1028.0 hPa Calm     79 % 0.0 mm
22:10 18.4 °C 14.7 °C 1028.0 hPa Calm     79 % 0.0 mm
22:15 18.4 °C 14.7 °C 1028.0 hPa Calm     79 % 0.0 mm
22:20 18.4 °C 14.7 °C 1028.0 hPa Calm     79 % 0.0 mm
22:25 18.4 °C 14.9 °C 1028.0 hPa Calm     80 % 0.0 mm
22:30 18.4 °C 14.9 °C 1028.0 hPa Calm     80 % 0.0 mm
22:35 18.3 °C 14.8 °C 1028.0 hPa Calm     80 % 0.0 mm
22:40 18.3 °C 14.8 °C 1028.0 hPa Calm     80 % 0.0 mm
22:45 18.2 °C 14.7 °C 1028.0 hPa Calm     80 % 0.0 mm
22:50 18.2 °C 14.7 °C 1028.0 hPa Calm     80 % 0.0 mm
22:55 18.2 °C 14.7 °C 1028.0 hPa Calm     80 % 0.0 mm
23:00 18.1 °C 14.6 °C 1028.0 hPa Calm     80 % 0.0 mm
23:05 18.1 °C 14.6 °C 1028.0 hPa Calm     80 % 0.0 mm
23:10 18.1 °C 14.6 °C 1028.0 hPa Calm     80 % 0.0 mm
23:15 18.0 °C 14.7 °C 1028.0 hPa Calm     81 % 0.0 mm
23:20 18.0 °C 14.7 °C 1028.0 hPa Calm     81 % 0.0 mm
23:25 18.0 °C 14.7 °C 1028.0 hPa Calm     81 % 0.0 mm
23:30 18.0 °C 14.7 °C 1028.0 hPa Calm     81 % 0.0 mm
23:35 18.0 °C 14.7 °C 1028.0 hPa Calm     81 % 0.0 mm
23:40 18.0 °C 14.9 °C 1028.0 hPa Calm     82 % 0.0 mm
23:45 17.8 °C 14.7 °C 1028.0 hPa Calm     82 % 0.0 mm
23:50 17.8 °C 14.7 °C 1028.0 hPa Calm     82 % 0.0 mm
23:55 17.7 °C 14.6 °C 1028.0 hPa Calm     82 % 0.0 mm
Meteo Sesrovires
Elogis d' Weather Underground - 4 mb

Guio original per  Jim McMurry - jmcmurry@mwt.net Adaptat per a la plantilla per  Wim van der Kuil - Leuven-Template.eu

Trobareu la nostra informacio del temps tambe a:

Weather Underground

AWEKAS